KOXC/OXC METAR and TAF weather

Enter ICAO airport designator
Station Type Date Time Source
KOXC METAR 2020/01/20 09:51 UTC NOAA

KOXC 200951Z AUTO 34011KT 10SM OVC028 M09/M14 A3003 RMK AO2 SLP192 T10941144 FZRANO


Station Type Date Time Source
KOXC Decoded METAR 2020/01/20 09:51 UTC NOAA

Oxford, Waterbury-Oxford Airport, CT, United States (KOXC) 41-29N 073-08W
Jan 20, 2020 - 04:51 AM EST / 2020.01.20 0951 UTC
Wind: from the NNW (340 degrees) at 13 MPH (11 KT):0
Visibility: 10 mile(s):0
Sky conditions: overcast
Temperature: 15.1 F (-9.4 C)
Windchill: 1 F (-17 C):1
Dew Point: 6.1 F (-14.4 C)
Relative Humidity: 66%
Pressure (altimeter): 30.03 in. Hg (1016 hPa)
ob: KOXC 200951Z AUTO 34011KT 10SM OVC028 M09/M14 A3003 RMK AO2 SLP192 T10941144 FZRANO
cycle: 10

Station Type Date Time Source
KOXC TAF UTC NOAA

Error!

Example: see airport list